createdAt,value
2018-12-12T00:00:03.197Z,6.12
2018-12-12T00:02:32.123Z,5.55
2018-12-12T00:05:01.093Z,5.73
2018-12-12T00:07:30.016Z,7.05
2018-12-12T00:09:58.926Z,6.78
2018-12-12T00:12:27.927Z,7.15
2018-12-12T00:14:56.987Z,6.53
2018-12-12T00:17:25.895Z,6.17
2018-12-12T00:19:54.844Z,6.90
2018-12-12T00:22:23.772Z,7.15
2018-12-12T00:24:52.674Z,7.00
2018-12-12T00:27:21.631Z,6.77
2018-12-12T00:29:50.521Z,7.03
2018-12-12T00:32:19.421Z,6.85
2018-12-12T00:34:48.437Z,7.05
2018-12-12T00:37:17.399Z,9.03
2018-12-12T00:39:47.206Z,7.20
2018-12-12T00:42:17.831Z,7.70
2018-12-12T00:44:46.845Z,7.23
2018-12-12T00:47:15.812Z,7.63
2018-12-12T00:49:44.781Z,7.35
2018-12-12T00:52:13.672Z,7.00
2018-12-12T00:54:43.462Z,7.33
2018-12-12T00:57:12.429Z,6.87
2018-12-12T00:59:41.308Z,8.88
2018-12-12T01:02:10.224Z,7.30
2018-12-12T01:04:39.212Z,7.80
2018-12-12T01:07:08.129Z,7.50
2018-12-12T01:09:37.156Z,8.63
2018-12-12T01:12:12.693Z,7.58
2018-12-12T01:14:41.582Z,8.20
2018-12-12T01:17:10.502Z,8.08
2018-12-12T01:19:39.500Z,8.13
2018-12-12T01:22:09.221Z,7.00
2018-12-12T01:24:38.132Z,6.53
2018-12-12T01:27:07.171Z,8.30
2018-12-12T01:29:36.136Z,6.80
2018-12-12T01:32:05.201Z,5.20
2018-12-12T01:34:34.186Z,6.10
2018-12-12T01:37:03.291Z,6.05
2018-12-12T01:39:32.248Z,6.50
2018-12-12T01:42:01.230Z,8.28
2018-12-12T01:44:30.148Z,7.37
2018-12-12T01:46:59.052Z,6.17
2018-12-12T01:49:28.859Z,7.00
2018-12-12T01:51:57.760Z,7.40
2018-12-12T01:54:26.655Z,6.72
2018-12-12T01:56:56.529Z,6.53
2018-12-12T01:59:26.409Z,7.05
2018-12-12T02:01:55.623Z,7.28
2018-12-12T02:04:24.622Z,6.83
2018-12-12T02:06:53.511Z,7.28
2018-12-12T02:09:22.437Z,8.28
2018-12-12T02:11:51.419Z,7.35
2018-12-12T02:14:20.315Z,7.12
2018-12-12T02:16:49.404Z,6.70
2018-12-12T02:19:18.375Z,8.03
2018-12-12T02:21:47.277Z,7.85
2018-12-12T02:24:16.176Z,7.60
2018-12-12T02:26:45.140Z,7.58
2018-12-12T02:29:14.040Z,7.28
2018-12-12T02:31:43.022Z,8.00
2018-12-12T02:34:12.168Z,7.45
2018-12-12T02:36:41.082Z,7.10
2018-12-12T02:39:10.032Z,7.80
2018-12-12T02:41:39.071Z,7.95
2018-12-12T02:44:07.996Z,8.08
2018-12-12T02:46:36.895Z,7.40
2018-12-12T02:49:05.935Z,8.40
2018-12-12T02:51:34.883Z,8.48
2018-12-12T02:54:04.829Z,7.97
2018-12-12T02:56:34.008Z,8.60
2018-12-12T02:59:02.980Z,7.55
2018-12-12T03:01:31.929Z,10.08
2018-12-12T03:04:00.950Z,9.55
2018-12-12T03:06:29.881Z,8.33
2018-12-12T03:08:58.822Z,9.05
2018-12-12T03:11:27.790Z,7.78
2018-12-12T03:13:56.720Z,8.15
2018-12-12T03:16:25.646Z,7.87
2018-12-12T03:18:55.688Z,8.53
2018-12-12T03:21:36.857Z,8.30
2018-12-12T03:24:05.862Z,8.35
2018-12-12T03:26:34.791Z,8.33
2018-12-12T03:29:03.709Z,8.47
2018-12-12T03:31:32.683Z,8.63
2018-12-12T03:34:01.608Z,9.43
2018-12-12T03:36:30.508Z,9.77
2018-12-12T03:38:59.464Z,9.63
2018-12-12T03:41:28.373Z,8.90
2018-12-12T03:43:57.348Z,8.53
2018-12-12T03:46:26.328Z,10.20
2018-12-12T03:48:55.234Z,9.30
2018-12-12T03:51:24.124Z,8.20
2018-12-12T03:53:53.098Z,8.50
2018-12-12T03:56:22.356Z,8.87
2018-12-12T03:58:51.247Z,9.97
2018-12-12T04:01:20.225Z,8.70
2018-12-12T04:03:49.181Z,9.90
2018-12-12T04:06:18.097Z,8.77
2018-12-12T04:08:47.059Z,10.50
2018-12-12T04:11:15.952Z,7.70
2018-12-12T04:13:45.067Z,8.67
2018-12-12T04:16:14.139Z,9.07
2018-12-12T04:18:43.060Z,9.37
2018-12-12T04:21:11.962Z,9.50
2018-12-12T04:23:42.074Z,8.63
2018-12-12T04:26:10.967Z,9.77
2018-12-12T04:28:40.353Z,9.73
2018-12-12T04:31:09.342Z,10.57
2018-12-12T04:33:38.240Z,11.33
2018-12-12T04:36:07.169Z,9.30
2018-12-12T04:38:36.128Z,9.23
2018-12-12T04:41:05.092Z,9.90
2018-12-12T04:43:33.984Z,9.40
2018-12-12T04:46:03.040Z,10.10
2018-12-12T04:48:31.944Z,10.30
2018-12-12T04:51:00.845Z,8.43
2018-12-12T04:53:29.840Z,8.03
2018-12-12T04:55:58.833Z,7.85
2018-12-12T04:58:27.786Z,7.97
2018-12-12T05:00:56.748Z,6.47
2018-12-12T05:03:25.693Z,6.50
2018-12-12T05:05:54.590Z,6.37
2018-12-12T05:08:23.600Z,5.60
2018-12-12T05:10:52.530Z,6.15
2018-12-12T05:13:21.432Z,6.10
2018-12-12T05:15:51.401Z,5.72
2018-12-12T05:18:20.302Z,5.00
2018-12-12T05:20:49.285Z,7.42
2018-12-12T05:23:18.253Z,6.20
2018-12-12T05:25:47.384Z,5.80
2018-12-12T05:28:16.292Z,6.30
2018-12-12T05:30:46.076Z,6.45
2018-12-12T05:33:14.968Z,6.33
2018-12-12T05:35:43.880Z,5.78
2018-12-12T05:38:13.360Z,6.25
2018-12-12T05:40:42.556Z,5.97
2018-12-12T05:43:11.888Z,5.55
2018-12-12T05:45:40.884Z,6.08
2018-12-12T05:48:09.852Z,6.45
2018-12-12T05:50:38.789Z,4.75
2018-12-12T05:53:07.743Z,5.28
2018-12-12T05:55:36.641Z,5.83
2018-12-12T05:58:05.536Z,7.70
2018-12-12T06:00:34.816Z,5.75
2018-12-12T06:03:04.121Z,6.22
2018-12-12T06:05:33.036Z,4.67
2018-12-12T06:08:02.064Z,5.97
2018-12-12T06:10:30.951Z,5.42
2018-12-12T06:12:59.888Z,4.10
2018-12-12T06:15:28.873Z,3.85
2018-12-12T06:17:57.801Z,5.00
2018-12-12T06:20:26.733Z,3.50
2018-12-12T06:22:55.728Z,4.75
2018-12-12T06:25:24.634Z,4.83
2018-12-12T06:27:53.531Z,5.15
2018-12-12T06:30:22.524Z,3.42
2018-12-12T06:32:51.484Z,4.15
2018-12-12T06:35:20.381Z,3.72
2018-12-12T06:37:49.395Z,3.35
2018-12-12T06:40:18.313Z,4.05
2018-12-12T06:42:47.322Z,4.20
2018-12-12T06:45:16.307Z,3.45
2018-12-12T06:47:45.242Z,3.20
2018-12-12T06:50:14.444Z,5.00
2018-12-12T06:52:43.545Z,3.50
2018-12-12T06:55:12.472Z,3.55
2018-12-12T06:57:41.391Z,3.70
2018-12-12T07:00:11.051Z,3.08
2018-12-12T07:02:40.050Z,4.10
2018-12-12T07:05:10.871Z,4.47
2018-12-12T07:07:39.912Z,4.22
2018-12-12T07:10:08.920Z,3.02
2018-12-12T07:12:40.793Z,3.72
2018-12-12T07:15:09.806Z,5.67
2018-12-12T07:17:39.812Z,3.83
2018-12-12T07:20:08.869Z,4.00
2018-12-12T07:22:37.804Z,5.85
2018-12-12T07:25:19.426Z,3.77
2018-12-12T07:27:48.458Z,3.77
2018-12-12T07:30:17.399Z,3.42
2018-12-12T07:32:46.465Z,3.67
2018-12-12T07:35:15.435Z,3.25
2018-12-12T07:37:44.719Z,4.10
2018-12-12T07:40:13.853Z,4.87
2018-12-12T07:42:42.897Z,2.90
2018-12-12T07:45:12.293Z,5.00
2018-12-12T07:47:41.334Z,3.33
2018-12-12T07:50:10.368Z,5.78
2018-12-12T07:52:39.473Z,4.25
2018-12-12T07:55:08.530Z,3.90
2018-12-12T07:57:37.854Z,4.33
2018-12-12T08:00:08.200Z,3.20
2018-12-12T08:02:37.618Z,3.92
2018-12-12T08:05:06.708Z,4.97
2018-12-12T08:07:35.750Z,3.70
2018-12-12T08:10:05.434Z,4.05
2018-12-12T08:12:34.379Z,4.42
2018-12-12T08:15:03.316Z,4.00
2018-12-12T08:17:32.418Z,4.00
2018-12-12T08:20:01.423Z,3.77
2018-12-12T08:22:30.361Z,4.62
2018-12-12T08:24:59.499Z,4.12
2018-12-12T08:27:28.850Z,4.45
2018-12-12T08:29:57.841Z,3.90
2018-12-12T08:32:26.902Z,5.53
2018-12-12T08:34:55.878Z,4.47
2018-12-12T08:37:24.828Z,4.20
2018-12-12T08:39:53.936Z,6.15
2018-12-12T08:42:22.924Z,4.92
2018-12-12T08:44:52.698Z,4.92
2018-12-12T08:47:21.824Z,4.10
2018-12-12T08:49:50.817Z,4.72
2018-12-12T08:52:19.948Z,3.42
2018-12-12T08:54:49.003Z,4.05
2018-12-12T08:57:18.361Z,4.83
2018-12-12T08:59:47.384Z,5.25
2018-12-12T09:02:16.424Z,5.25
2018-12-12T09:04:45.472Z,5.03
2018-12-12T09:07:14.380Z,4.42
2018-12-12T09:09:43.372Z,4.62
2018-12-12T09:12:13.081Z,5.42
2018-12-12T09:14:42.061Z,7.12
2018-12-12T09:17:11.188Z,5.92
2018-12-12T09:19:40.186Z,4.70
2018-12-12T09:22:09.157Z,5.47
2018-12-12T09:24:38.140Z,5.58
2018-12-12T09:27:07.074Z,4.80
2018-12-12T09:29:36.500Z,4.33
2018-12-12T09:32:05.913Z,4.75
2018-12-12T09:34:34.892Z,4.95
2018-12-12T09:37:03.840Z,3.95
2018-12-12T09:39:32.858Z,3.98
2018-12-12T09:42:01.867Z,4.17
2018-12-12T09:44:31.024Z,4.22
2018-12-12T09:47:00.070Z,3.92
2018-12-12T09:49:29.063Z,3.65
2018-12-12T09:51:58.353Z,3.95
2018-12-12T09:54:27.364Z,4.00
2018-12-12T09:56:56.367Z,4.37
2018-12-12T09:59:25.649Z,4.15
2018-12-12T10:01:54.680Z,3.90
2018-12-12T10:04:23.639Z,4.58
2018-12-12T10:06:52.880Z,5.42
2018-12-12T10:09:21.955Z,4.00
2018-12-12T10:11:50.981Z,5.50
2018-12-12T10:14:19.965Z,4.65
2018-12-12T10:16:48.980Z,4.62
2018-12-12T10:19:17.927Z,4.20
2018-12-12T10:21:47.776Z,5.25
2018-12-12T10:24:17.171Z,5.90
2018-12-12T10:26:46.479Z,4.45
2018-12-12T10:29:16.068Z,4.53
2018-12-12T10:31:46.850Z,4.15
2018-12-12T10:34:15.933Z,6.92
2018-12-12T10:36:48.054Z,4.22
2018-12-12T10:39:17.649Z,4.28
2018-12-12T10:41:46.993Z,5.45
2018-12-12T10:44:17.294Z,3.90
2018-12-12T10:46:47.434Z,4.03
2018-12-12T10:49:16.749Z,3.90
2018-12-12T10:51:47.384Z,6.20
2018-12-12T10:54:16.740Z,4.53
2018-12-12T10:56:45.936Z,5.00
2018-12-12T10:59:16.011Z,5.05
2018-12-12T11:01:48.524Z,4.37
2018-12-12T11:04:19.785Z,4.62
2018-12-12T11:06:49.122Z,5.62
2018-12-12T11:09:19.313Z,3.92
2018-12-12T11:11:48.472Z,4.15
2018-12-12T11:14:17.940Z,5.80
2018-12-12T11:16:47.174Z,4.10
2018-12-12T11:19:16.158Z,5.00
2018-12-12T11:21:45.680Z,4.58
2018-12-12T11:24:15.058Z,5.22
2018-12-12T11:26:51.710Z,3.47
2018-12-12T11:29:20.789Z,4.25
2018-12-12T11:31:50.256Z,4.45
2018-12-12T11:34:19.565Z,4.53
2018-12-12T11:36:48.941Z,4.42
2018-12-12T11:39:17.936Z,5.35
2018-12-12T11:41:47.976Z,3.92
2018-12-12T11:44:17.054Z,4.47
2018-12-12T11:46:46.776Z,4.95
2018-12-12T11:49:15.904Z,3.83
2018-12-12T11:51:45.051Z,3.98
2018-12-12T11:54:14.091Z,4.05
2018-12-12T11:56:43.566Z,3.77
2018-12-12T11:59:12.569Z,5.00
2018-12-12T12:01:42.612Z,4.40
2018-12-12T12:04:12.596Z,4.45
2018-12-12T12:06:41.716Z,4.00
2018-12-12T12:09:10.779Z,5.42
2018-12-12T12:11:39.989Z,5.25
2018-12-12T12:14:09.074Z,4.90
2018-12-12T12:16:38.120Z,4.42
2018-12-12T12:19:07.182Z,3.85
2018-12-12T12:21:36.144Z,3.83
2018-12-12T12:24:05.132Z,4.67
2018-12-12T12:26:34.273Z,4.55
2018-12-12T12:29:03.520Z,3.77
2018-12-12T12:31:32.833Z,4.55
2018-12-12T12:34:03.366Z,4.08
2018-12-12T12:36:32.509Z,4.37
2018-12-12T12:39:02.792Z,4.42
2018-12-12T12:41:31.971Z,4.10
2018-12-12T12:44:04.471Z,3.77
2018-12-12T12:46:33.786Z,4.92
2018-12-12T12:49:02.838Z,4.80
2018-12-12T12:51:32.359Z,4.47
2018-12-12T12:54:01.589Z,4.28
2018-12-12T12:56:35.821Z,5.35
2018-12-12T12:59:05.671Z,4.80
2018-12-12T13:01:34.986Z,4.60
2018-12-12T13:04:09.503Z,4.35
2018-12-12T13:06:41.892Z,4.62
2018-12-12T13:09:10.964Z,4.92
2018-12-12T13:11:40.049Z,4.15
2018-12-12T13:14:09.225Z,4.65
2018-12-12T13:16:38.421Z,4.28
2018-12-12T13:19:07.515Z,4.12
2018-12-12T13:21:36.743Z,4.37
2018-12-12T13:24:05.813Z,4.00
2018-12-12T13:26:35.089Z,3.37
2018-12-12T13:29:04.113Z,4.08
2018-12-12T13:31:33.105Z,4.78
2018-12-12T13:34:02.266Z,4.22
2018-12-12T13:36:31.242Z,4.00
2018-12-12T13:39:00.281Z,4.05
2018-12-12T13:41:29.646Z,3.75
2018-12-12T13:43:58.669Z,3.83
2018-12-12T13:46:28.692Z,4.37
2018-12-12T13:48:58.025Z,4.45
2018-12-12T13:51:27.429Z,4.83
2018-12-12T13:53:56.699Z,4.58
2018-12-12T13:56:25.783Z,4.22
2018-12-12T13:58:55.258Z,6.05
2018-12-12T14:01:24.168Z,3.77
2018-12-12T14:03:53.187Z,4.00
2018-12-12T14:06:22.145Z,4.30
2018-12-12T14:08:51.095Z,4.00
2018-12-12T14:11:20.155Z,5.45
2018-12-12T14:13:49.250Z,3.90
2018-12-12T14:16:18.408Z,3.60
2018-12-12T14:18:48.022Z,4.95
2018-12-12T14:21:17.017Z,4.33
2018-12-12T14:23:47.058Z,4.70
2018-12-12T14:26:16.107Z,6.55
2018-12-12T14:28:45.155Z,5.45
2018-12-12T14:31:14.142Z,4.05
2018-12-12T14:33:43.237Z,4.12
2018-12-12T14:36:12.403Z,3.80
2018-12-12T14:38:51.151Z,3.85
2018-12-12T14:41:20.161Z,4.58
2018-12-12T14:43:49.130Z,3.87
2018-12-12T14:46:18.211Z,6.55
2018-12-12T14:48:47.162Z,4.35
2018-12-12T14:51:17.734Z,5.35
2018-12-12T14:53:46.823Z,5.95
2018-12-12T14:56:15.917Z,4.92
2018-12-12T14:58:46.153Z,5.55
2018-12-12T15:01:15.480Z,4.60
2018-12-12T15:03:45.698Z,4.10
2018-12-12T15:06:17.046Z,4.45
2018-12-12T15:08:46.998Z,8.73
2018-12-12T15:11:15.958Z,9.03
2018-12-12T15:13:44.966Z,4.83
2018-12-12T15:16:14.036Z,4.90
2018-12-12T15:18:43.834Z,4.08
2018-12-12T15:21:13.041Z,4.30
2018-12-12T15:23:42.101Z,3.15
2018-12-12T15:26:11.050Z,4.22
2018-12-12T15:28:40.190Z,3.52
2018-12-12T15:31:10.308Z,4.12
2018-12-12T15:33:39.349Z,3.98
2018-12-12T15:36:08.592Z,4.20
2018-12-12T15:38:37.593Z,3.60
2018-12-12T15:41:06.572Z,4.70
2018-12-12T15:43:35.755Z,2.67
2018-12-12T15:46:05.653Z,3.90
2018-12-12T15:48:34.893Z,3.60
2018-12-12T15:51:04.086Z,3.27
2018-12-12T15:53:34.347Z,3.25
2018-12-12T15:56:03.259Z,4.75
2018-12-12T15:58:32.253Z,3.25
2018-12-12T16:01:01.160Z,4.28
2018-12-12T16:03:30.117Z,3.37
2018-12-12T16:05:59.131Z,4.83
2018-12-12T16:08:28.111Z,3.85
2018-12-12T16:10:57.038Z,3.47
2018-12-12T16:13:26.024Z,3.62
2018-12-12T16:15:54.945Z,3.25
2018-12-12T16:18:23.856Z,3.05
2018-12-12T16:20:52.857Z,3.30
2018-12-12T16:23:22.780Z,4.12
2018-12-12T16:25:51.712Z,4.42
2018-12-12T16:28:20.697Z,4.90
2018-12-12T16:30:49.600Z,4.53
2018-12-12T16:33:18.557Z,4.35
2018-12-12T16:35:47.569Z,3.58
2018-12-12T16:38:16.481Z,3.45
2018-12-12T16:40:45.514Z,3.70
2018-12-12T16:43:14.576Z,4.00
2018-12-12T16:45:43.487Z,4.05
2018-12-12T16:48:12.413Z,3.22
2018-12-12T16:50:42.186Z,3.83
2018-12-12T16:53:11.463Z,3.72
2018-12-12T16:55:40.460Z,3.77
2018-12-12T16:58:09.431Z,3.30
2018-12-12T17:00:38.400Z,5.50
2018-12-12T17:03:07.388Z,3.92
2018-12-12T17:05:36.417Z,8.03
2018-12-12T17:08:05.356Z,5.72
2018-12-12T17:10:34.342Z,4.03
2018-12-12T17:13:03.385Z,4.92
2018-12-12T17:15:32.436Z,5.90
2018-12-12T17:18:01.341Z,6.95
2018-12-12T17:20:31.243Z,5.70
2018-12-12T17:23:00.168Z,5.47
2018-12-12T17:25:29.099Z,4.17
2018-12-12T17:27:58.147Z,3.98
2018-12-12T17:30:27.063Z,3.72
2018-12-12T17:32:56.029Z,4.22
2018-12-12T17:35:25.016Z,4.75
2018-12-12T17:37:54.022Z,3.45
2018-12-12T17:40:22.988Z,4.37
2018-12-12T17:42:52.096Z,4.45
2018-12-12T17:45:21.086Z,5.47
2018-12-12T17:47:50.043Z,5.53
2018-12-12T17:50:19.044Z,4.47
2018-12-12T17:52:47.976Z,4.90
2018-12-12T17:55:16.944Z,5.25
2018-12-12T17:57:45.925Z,4.83
2018-12-12T18:00:15.970Z,5.10
2018-12-12T18:02:44.937Z,5.55
2018-12-12T18:05:26.199Z,5.50
2018-12-12T18:07:55.232Z,5.22
2018-12-12T18:10:24.217Z,6.90
2018-12-12T18:12:53.209Z,6.67
2018-12-12T18:15:22.129Z,7.15
2018-12-12T18:17:51.042Z,10.38
2018-12-12T18:20:20.071Z,12.20
2018-12-12T18:22:49.009Z,14.43
2018-12-12T18:25:17.916Z,13.65
2018-12-12T18:27:46.893Z,15.90
2018-12-12T18:30:15.828Z,16.57
2018-12-12T18:32:44.840Z,18.60
2018-12-12T18:35:13.828Z,15.10
2018-12-12T18:37:42.739Z,16.75
2018-12-12T18:40:11.718Z,19.85
2018-12-12T18:42:40.782Z,47.75
2018-12-12T18:45:09.796Z,32.75
2018-12-12T18:47:38.744Z,31.20
2018-12-12T18:50:09.249Z,50.75
2018-12-12T18:52:38.189Z,52.62
2018-12-12T18:55:07.174Z,65.17
2018-12-12T18:57:36.236Z,41.37
2018-12-12T19:00:05.263Z,47.50
2018-12-12T19:02:34.189Z,57.65
2018-12-12T19:05:03.277Z,21.93
2018-12-12T19:07:32.214Z,8.40
2018-12-12T19:10:01.193Z,7.85
2018-12-12T19:12:30.229Z,4.22
2018-12-12T19:15:03.388Z,4.95
2018-12-12T19:17:32.433Z,4.75
2018-12-12T19:20:01.412Z,5.17
2018-12-12T19:22:30.337Z,5.40
2018-12-12T19:24:59.472Z,6.95
2018-12-12T19:27:28.389Z,6.30
2018-12-12T19:29:57.306Z,6.58
2018-12-12T19:32:26.532Z,6.97
2018-12-12T19:34:55.454Z,6.28
2018-12-12T19:37:25.228Z,5.10
2018-12-12T19:39:54.197Z,6.10
2018-12-12T19:42:23.126Z,5.47
2018-12-12T19:44:52.043Z,6.47
2018-12-12T19:47:21.073Z,4.70
2018-12-12T19:49:49.988Z,4.67
2018-12-12T19:52:18.916Z,4.65
2018-12-12T19:54:47.923Z,5.17
2018-12-12T19:57:16.825Z,4.75
2018-12-12T19:59:45.714Z,5.45
2018-12-12T20:02:14.733Z,4.28
2018-12-12T20:04:43.754Z,5.37
2018-12-12T20:07:13.170Z,4.97
2018-12-12T20:09:42.330Z,5.47
2018-12-12T20:12:11.228Z,6.45
2018-12-12T20:14:40.227Z,4.67
2018-12-12T20:17:09.290Z,5.35
2018-12-12T20:19:38.220Z,4.60
2018-12-12T20:22:08.173Z,4.15
2018-12-12T20:24:37.718Z,4.72
2018-12-12T20:27:06.653Z,5.25
2018-12-12T20:29:35.561Z,4.75
2018-12-12T20:32:04.573Z,5.25
2018-12-12T20:34:33.541Z,5.22
2018-12-12T20:37:03.242Z,6.47
2018-12-12T20:39:32.280Z,5.08
2018-12-12T20:42:01.200Z,5.62
2018-12-12T20:44:30.113Z,5.90
2018-12-12T20:46:59.105Z,6.00
2018-12-12T20:49:28.073Z,6.72
2018-12-12T20:51:56.976Z,5.28
2018-12-12T20:54:25.950Z,5.78
2018-12-12T20:56:54.860Z,6.62
2018-12-12T20:59:23.782Z,6.87
2018-12-12T21:01:53.270Z,6.65
2018-12-12T21:04:22.785Z,6.90
2018-12-12T21:06:51.716Z,6.87
2018-12-12T21:09:20.706Z,6.58
2018-12-12T21:11:49.632Z,6.90
2018-12-12T21:14:18.525Z,7.15
2018-12-12T21:16:47.592Z,6.97
2018-12-12T21:19:16.532Z,7.42
2018-12-12T21:21:45.441Z,7.35
2018-12-12T21:24:14.501Z,6.20
2018-12-12T21:26:43.401Z,7.58
2018-12-12T21:29:12.391Z,7.62
2018-12-12T21:31:41.341Z,7.62
2018-12-12T21:34:10.304Z,7.10
2018-12-12T21:36:39.215Z,6.60
2018-12-12T21:39:08.297Z,6.15
2018-12-12T21:41:37.206Z,6.22
2018-12-12T21:44:06.144Z,5.80
2018-12-12T21:46:35.116Z,5.70
2018-12-12T21:49:04.034Z,5.12
2018-12-12T21:51:32.996Z,6.00
2018-12-12T21:54:02.035Z,5.45
2018-12-12T21:56:30.944Z,4.90
2018-12-12T21:59:01.059Z,4.60
2018-12-12T22:01:30.035Z,6.42
2018-12-12T22:03:58.936Z,5.65
2018-12-12T22:06:27.894Z,4.92
2018-12-12T22:08:56.876Z,4.67
2018-12-12T22:11:25.983Z,5.40
2018-12-12T22:13:54.917Z,5.00
2018-12-12T22:16:24.133Z,4.70
2018-12-12T22:18:53.064Z,4.92
2018-12-12T22:21:22.021Z,4.60
2018-12-12T22:23:50.985Z,5.15
2018-12-12T22:26:20.337Z,4.60
2018-12-12T22:28:49.238Z,4.05
2018-12-12T22:31:18.331Z,4.40
2018-12-12T22:33:47.286Z,5.05
2018-12-12T22:36:16.196Z,4.28
2018-12-12T22:38:45.188Z,5.37
2018-12-12T22:41:14.157Z,4.95
2018-12-12T22:43:43.059Z,4.12
2018-12-12T22:46:12.081Z,5.42
2018-12-12T22:48:40.993Z,4.25
2018-12-12T22:51:10.784Z,3.70
2018-12-12T22:53:39.835Z,4.87
2018-12-12T22:56:08.732Z,3.83
2018-12-12T22:58:38.092Z,4.25
2018-12-12T23:01:13.668Z,4.47
2018-12-12T23:03:42.571Z,4.72
2018-12-12T23:06:11.481Z,5.25
2018-12-12T23:08:40.484Z,4.78
2018-12-12T23:11:09.399Z,4.75
2018-12-12T23:13:38.312Z,5.12
2018-12-12T23:16:07.292Z,5.20
2018-12-12T23:18:36.212Z,5.83
2018-12-12T23:21:05.105Z,5.37
2018-12-12T23:23:34.068Z,4.72
2018-12-12T23:26:02.974Z,10.00
2018-12-12T23:28:31.869Z,6.37
2018-12-12T23:31:00.832Z,5.90
2018-12-12T23:33:29.758Z,5.12
2018-12-12T23:35:58.667Z,5.37
2018-12-12T23:38:27.688Z,5.65
2018-12-12T23:40:56.593Z,6.05
2018-12-12T23:43:25.671Z,6.42
2018-12-12T23:45:54.664Z,7.62
2018-12-12T23:48:23.606Z,8.50
2018-12-12T23:50:52.525Z,7.33
2018-12-12T23:53:21.489Z,7.25
2018-12-12T23:55:50.453Z,7.62
2018-12-12T23:58:19.373Z,8.48
